sensor_id;sensor_type;location;lat;lon;timestamp;temperature;humidity
4699;DHT22;33708;49.466;11.176;2023-07-31T00:00:24;15.20;1.00
4699;DHT22;33708;49.466;11.176;2023-07-31T00:02:50;15.20;1.00
4699;DHT22;33708;49.466;11.176;2023-07-31T00:05:16;15.20;1.00
4699;DHT22;33708;49.466;11.176;2023-07-31T00:07:42;15.10;1.00
4699;DHT22;33708;49.466;11.176;2023-07-31T00:10:07;15.00;1.00
4699;DHT22;33708;49.466;11.176;2023-07-31T00:12:33;15.00;1.00
4699;DHT22;33708;49.466;11.176;2023-07-31T00:14:59;14.90;1.00
4699;DHT22;33708;49.466;11.176;2023-07-31T00:17:24;14.80;1.00
4699;DHT22;33708;49.466;11.176;2023-07-31T00:19:50;14.70;1.00
4699;DHT22;33708;49.466;11.176;2023-07-31T00:22:16;14.60;1.00
4699;DHT22;33708;49.466;11.176;2023-07-31T00:24:41;14.50;1.00
4699;DHT22;33708;49.466;11.176;2023-07-31T00:27:07;14.50;1.00
4699;DHT22;33708;49.466;11.176;2023-07-31T00:29:32;14.40;1.00
4699;DHT22;33708;49.466;11.176;2023-07-31T00:31:58;14.40;1.00
4699;DHT22;33708;49.466;11.176;2023-07-31T00:34:24;14.50;1.00
4699;DHT22;33708;49.466;11.176;2023-07-31T00:36:49;14.50;34.70
4699;DHT22;33708;49.466;11.176;2023-07-31T00:39:15;14.50;1.00
4699;DHT22;33708;49.466;11.176;2023-07-31T00:41:40;14.50;1.00
4699;DHT22;33708;49.466;11.176;2023-07-31T00:44:06;14.50;1.00
4699;DHT22;33708;49.466;11.176;2023-07-31T00:46:31;14.50;1.00
4699;DHT22;33708;49.466;11.176;2023-07-31T00:48:57;14.50;1.00
4699;DHT22;33708;49.466;11.176;2023-07-31T00:51:23;14.60;1.00
4699;DHT22;33708;49.466;11.176;2023-07-31T00:53:49;14.80;1.00
4699;DHT22;33708;49.466;11.176;2023-07-31T00:56:16;14.60;1.00
4699;DHT22;33708;49.466;11.176;2023-07-31T00:58:42;14.50;1.00
4699;DHT22;33708;49.466;11.176;2023-07-31T01:01:07;14.50;1.00
4699;DHT22;33708;49.466;11.176;2023-07-31T01:03:33;14.50;1.00
4699;DHT22;33708;49.466;11.176;2023-07-31T01:09:09;14.50;1.00
4699;DHT22;33708;49.466;11.176;2023-07-31T01:11:31;14.60;1.00
4699;DHT22;33708;49.466;11.176;2023-07-31T01:13:58;14.70;1.00
4699;DHT22;33708;49.466;11.176;2023-07-31T01:16:25;14.90;1.00
4699;DHT22;33708;49.466;11.176;2023-07-31T01:18:52;15.00;1.00
4699;DHT22;33708;49.466;11.176;2023-07-31T01:26:33;15.10;1.00
4699;DHT22;33708;49.466;11.176;2023-07-31T01:31:39;15.20;1.00
4699;DHT22;33708;49.466;11.176;2023-07-31T01:34:07;15.20;1.00
4699;DHT22;33708;49.466;11.176;2023-07-31T01:36:34;15.30;1.00
4699;DHT22;33708;49.466;11.176;2023-07-31T01:39:00;15.30;1.00
4699;DHT22;33708;49.466;11.176;2023-07-31T01:41:26;15.20;1.00
4699;DHT22;33708;49.466;11.176;2023-07-31T01:43:52;15.30;1.00
4699;DHT22;33708;49.466;11.176;2023-07-31T01:46:17;15.30;1.00
4699;DHT22;33708;49.466;11.176;2023-07-31T01:48:43;15.40;1.00
4699;DHT22;33708;49.466;11.176;2023-07-31T01:51:08;15.50;1.00
4699;DHT22;33708;49.466;11.176;2023-07-31T01:53:34;15.40;1.00
4699;DHT22;33708;49.466;11.176;2023-07-31T01:56:00;15.40;1.00
4699;DHT22;33708;49.466;11.176;2023-07-31T01:58:25;15.40;1.00
4699;DHT22;33708;49.466;11.176;2023-07-31T02:00:51;15.50;1.00
4699;DHT22;33708;49.466;11.176;2023-07-31T02:03:16;15.40;1.00
4699;DHT22;33708;49.466;11.176;2023-07-31T02:05:46;15.50;1.00
4699;DHT22;33708;49.466;11.176;2023-07-31T02:08:11;15.60;1.00
4699;DHT22;33708;49.466;11.176;2023-07-31T02:10:37;15.60;1.00
4699;DHT22;33708;49.466;11.176;2023-07-31T02:13:03;15.70;1.00
4699;DHT22;33708;49.466;11.176;2023-07-31T02:15:30;15.80;1.00
4699;DHT22;33708;49.466;11.176;2023-07-31T02:17:55;15.70;1.00
4699;DHT22;33708;49.466;11.176;2023-07-31T02:20:21;15.80;1.00
4699;DHT22;33708;49.466;11.176;2023-07-31T02:22:46;15.70;1.00
4699;DHT22;33708;49.466;11.176;2023-07-31T02:25:12;15.70;1.00
4699;DHT22;33708;49.466;11.176;2023-07-31T02:27:38;15.70;1.00
4699;DHT22;33708;49.466;11.176;2023-07-31T02:30:03;15.70;1.00
4699;DHT22;33708;49.466;11.176;2023-07-31T02:32:29;15.70;1.00
4699;DHT22;33708;49.466;11.176;2023-07-31T02:34:54;15.80;1.00
4699;DHT22;33708;49.466;11.176;2023-07-31T02:37:20;15.80;1.00
4699;DHT22;33708;49.466;11.176;2023-07-31T02:39:46;15.90;1.00
4699;DHT22;33708;49.466;11.176;2023-07-31T02:42:12;15.90;1.00
4699;DHT22;33708;49.466;11.176;2023-07-31T02:44:38;15.90;1.00
4699;DHT22;33708;49.466;11.176;2023-07-31T02:47:04;15.90;1.00
4699;DHT22;33708;49.466;11.176;2023-07-31T02:49:29;15.90;1.00
4699;DHT22;33708;49.466;11.176;2023-07-31T02:51:55;15.90;1.00
4699;DHT22;33708;49.466;11.176;2023-07-31T02:54:20;15.90;1.00
4699;DHT22;33708;49.466;11.176;2023-07-31T02:56:47;15.90;1.00
4699;DHT22;33708;49.466;11.176;2023-07-31T02:59:13;15.90;1.00
4699;DHT22;33708;49.466;11.176;2023-07-31T03:01:39;15.80;1.00
4699;DHT22;33708;49.466;11.176;2023-07-31T03:04:04;15.90;1.00
4699;DHT22;33708;49.466;11.176;2023-07-31T03:06:30;16.00;1.00
4699;DHT22;33708;49.466;11.176;2023-07-31T03:08:55;15.90;1.00
4699;DHT22;33708;49.466;11.176;2023-07-31T03:11:21;15.90;1.00
4699;DHT22;33708;49.466;11.176;2023-07-31T03:13:47;15.80;1.00
4699;DHT22;33708;49.466;11.176;2023-07-31T03:16:12;15.80;1.00
4699;DHT22;33708;49.466;11.176;2023-07-31T03:18:38;15.80;1.00
4699;DHT22;33708;49.466;11.176;2023-07-31T03:21:04;15.90;1.00
4699;DHT22;33708;49.466;11.176;2023-07-31T03:23:30;15.80;1.00
4699;DHT22;33708;49.466;11.176;2023-07-31T03:25:59;15.60;1.00
4699;DHT22;33708;49.466;11.176;2023-07-31T03:28:25;15.80;1.00
4699;DHT22;33708;49.466;11.176;2023-07-31T03:30:52;15.80;1.00
4699;DHT22;33708;49.466;11.176;2023-07-31T03:33:17;15.80;1.00
4699;DHT22;33708;49.466;11.176;2023-07-31T03:35:43;15.80;1.00
4699;DHT22;33708;49.466;11.176;2023-07-31T03:38:09;15.80;1.00
4699;DHT22;33708;49.466;11.176;2023-07-31T03:40:34;15.90;1.00
4699;DHT22;33708;49.466;11.176;2023-07-31T03:43:00;16.00;1.00
4699;DHT22;33708;49.466;11.176;2023-07-31T03:45:25;16.00;1.00
4699;DHT22;33708;49.466;11.176;2023-07-31T03:47:51;15.90;1.00
4699;DHT22;33708;49.466;11.176;2023-07-31T03:50:17;15.80;1.00
4699;DHT22;33708;49.466;11.176;2023-07-31T03:52:42;15.80;1.00
4699;DHT22;33708;49.466;11.176;2023-07-31T03:55:08;15.80;1.00
4699;DHT22;33708;49.466;11.176;2023-07-31T03:57:33;15.90;1.00
4699;DHT22;33708;49.466;11.176;2023-07-31T03:59:59;15.90;1.00
4699;DHT22;33708;49.466;11.176;2023-07-31T04:02:25;15.90;1.00
4699;DHT22;33708;49.466;11.176;2023-07-31T04:04:50;16.10;1.00
4699;DHT22;33708;49.466;11.176;2023-07-31T04:07:16;16.20;1.00
4699;DHT22;33708;49.466;11.176;2023-07-31T04:09:41;16.20;1.00
4699;DHT22;33708;49.466;11.176;2023-07-31T04:12:07;16.30;1.00
4699;DHT22;33708;49.466;11.176;2023-07-31T04:14:33;16.30;1.00
4699;DHT22;33708;49.466;11.176;2023-07-31T04:16:58;16.40;1.00
4699;DHT22;33708;49.466;11.176;2023-07-31T04:19:24;16.40;1.00
4699;DHT22;33708;49.466;11.176;2023-07-31T04:21:50;16.30;1.00
4699;DHT22;33708;49.466;11.176;2023-07-31T04:24:15;16.20;1.00
4699;DHT22;33708;49.466;11.176;2023-07-31T04:26:41;16.20;1.00
4699;DHT22;33708;49.466;11.176;2023-07-31T04:29:06;16.20;1.00
4699;DHT22;33708;49.466;11.176;2023-07-31T04:31:33;16.20;1.00
4699;DHT22;33708;49.466;11.176;2023-07-31T04:33:59;16.30;1.00
4699;DHT22;33708;49.466;11.176;2023-07-31T04:36:24;16.30;1.00
4699;DHT22;33708;49.466;11.176;2023-07-31T04:38:50;16.30;1.00
4699;DHT22;33708;49.466;11.176;2023-07-31T04:41:15;16.40;1.00
4699;DHT22;33708;49.466;11.176;2023-07-31T04:43:41;16.50;1.00
4699;DHT22;33708;49.466;11.176;2023-07-31T04:46:07;16.60;1.00
4699;DHT22;33708;49.466;11.176;2023-07-31T04:48:32;16.70;1.00
4699;DHT22;33708;49.466;11.176;2023-07-31T04:50:58;16.70;1.00
4699;DHT22;33708;49.466;11.176;2023-07-31T04:53:23;16.80;1.00
4699;DHT22;33708;49.466;11.176;2023-07-31T04:55:49;16.90;1.00
4699;DHT22;33708;49.466;11.176;2023-07-31T04:58:15;17.20;1.00
4699;DHT22;33708;49.466;11.176;2023-07-31T05:00:40;17.60;1.00
4699;DHT22;33708;49.466;11.176;2023-07-31T05:03:06;18.10;1.00
4699;DHT22;33708;49.466;11.176;2023-07-31T05:05:32;18.00;1.00
4699;DHT22;33708;49.466;11.176;2023-07-31T05:07:58;18.10;1.00
4699;DHT22;33708;49.466;11.176;2023-07-31T05:10:23;17.80;1.00
4699;DHT22;33708;49.466;11.176;2023-07-31T05:12:49;17.70;1.00
4699;DHT22;33708;49.466;11.176;2023-07-31T05:15:15;17.60;1.00
4699;DHT22;33708;49.466;11.176;2023-07-31T05:17:40;17.50;1.00
4699;DHT22;33708;49.466;11.176;2023-07-31T05:20:06;17.40;1.00
4699;DHT22;33708;49.466;11.176;2023-07-31T05:22:32;17.50;1.00
4699;DHT22;33708;49.466;11.176;2023-07-31T05:24:58;17.30;1.00
4699;DHT22;33708;49.466;11.176;2023-07-31T05:27:23;17.40;1.00
4699;DHT22;33708;49.466;11.176;2023-07-31T05:29:49;17.40;1.00
4699;DHT22;33708;49.466;11.176;2023-07-31T05:32:14;17.40;1.00
4699;DHT22;33708;49.466;11.176;2023-07-31T05:34:40;17.50;1.00
4699;DHT22;33708;49.466;11.176;2023-07-31T05:37:06;17.60;1.00
4699;DHT22;33708;49.466;11.176;2023-07-31T05:39:31;17.70;1.00
4699;DHT22;33708;49.466;11.176;2023-07-31T05:41:57;17.70;1.00
4699;DHT22;33708;49.466;11.176;2023-07-31T05:44:22;17.90;1.00
4699;DHT22;33708;49.466;11.176;2023-07-31T05:46:48;18.00;1.00
4699;DHT22;33708;49.466;11.176;2023-07-31T05:49:14;18.10;1.00
4699;DHT22;33708;49.466;11.176;2023-07-31T05:51:39;18.20;1.00
4699;DHT22;33708;49.466;11.176;2023-07-31T05:54:05;18.20;1.00
4699;DHT22;33708;49.466;11.176;2023-07-31T05:56:30;18.30;1.00
4699;DHT22;33708;49.466;11.176;2023-07-31T05:58:57;18.20;1.00
4699;DHT22;33708;49.466;11.176;2023-07-31T06:01:22;18.20;1.00
4699;DHT22;33708;49.466;11.176;2023-07-31T06:03:48;18.30;1.00
4699;DHT22;33708;49.466;11.176;2023-07-31T06:06:13;18.40;1.00
4699;DHT22;33708;49.466;11.176;2023-07-31T06:08:39;18.50;1.00
4699;DHT22;33708;49.466;11.176;2023-07-31T06:11:05;18.50;1.00
4699;DHT22;33708;49.466;11.176;2023-07-31T06:13:31;18.50;1.00
4699;DHT22;33708;49.466;11.176;2023-07-31T06:15:56;18.60;1.00
4699;DHT22;33708;49.466;11.176;2023-07-31T06:18:22;18.50;1.00
4699;DHT22;33708;49.466;11.176;2023-07-31T06:20:48;18.50;1.00
4699;DHT22;33708;49.466;11.176;2023-07-31T06:23:19;18.60;1.00
4699;DHT22;33708;49.466;11.176;2023-07-31T06:25:44;18.60;1.00
4699;DHT22;33708;49.466;11.176;2023-07-31T06:28:10;18.70;1.00
4699;DHT22;33708;49.466;11.176;2023-07-31T06:30:36;18.90;1.00
4699;DHT22;33708;49.466;11.176;2023-07-31T06:33:01;19.10;1.00
4699;DHT22;33708;49.466;11.176;2023-07-31T06:35:27;19.30;1.00
4699;DHT22;33708;49.466;11.176;2023-07-31T06:37:52;19.30;1.00
4699;DHT22;33708;49.466;11.176;2023-07-31T06:40:18;19.60;1.00
4699;DHT22;33708;49.466;11.176;2023-07-31T06:42:44;20.10;1.00
4699;DHT22;33708;49.466;11.176;2023-07-31T06:45:10;20.50;1.00
4699;DHT22;33708;49.466;11.176;2023-07-31T06:47:36;20.60;1.00
4699;DHT22;33708;49.466;11.176;2023-07-31T06:50:01;20.90;1.00
4699;DHT22;33708;49.466;11.176;2023-07-31T06:52:27;21.30;1.00
4699;DHT22;33708;49.466;11.176;2023-07-31T06:55:04;21.40;1.00
4699;DHT22;33708;49.466;11.176;2023-07-31T06:57:29;21.30;1.00
4699;DHT22;33708;49.466;11.176;2023-07-31T06:59:55;21.70;1.00
4699;DHT22;33708;49.466;11.176;2023-07-31T07:02:21;21.50;1.00
4699;DHT22;33708;49.466;11.176;2023-07-31T07:04:46;21.90;1.00
4699;DHT22;33708;49.466;11.176;2023-07-31T07:07:12;21.80;1.00
4699;DHT22;33708;49.466;11.176;2023-07-31T07:09:37;21.70;1.00
4699;DHT22;33708;49.466;11.176;2023-07-31T07:12:03;21.80;1.00
4699;DHT22;33708;49.466;11.176;2023-07-31T07:14:29;21.40;1.00
4699;DHT22;33708;49.466;11.176;2023-07-31T07:16:54;21.50;1.00
4699;DHT22;33708;49.466;11.176;2023-07-31T07:19:20;21.20;1.00
4699;DHT22;33708;49.466;11.176;2023-07-31T07:21:45;21.30;1.00
4699;DHT22;33708;49.466;11.176;2023-07-31T07:24:11;21.30;1.00
4699;DHT22;33708;49.466;11.176;2023-07-31T07:26:37;21.40;1.00
4699;DHT22;33708;49.466;11.176;2023-07-31T07:29:02;21.80;1.00
4699;DHT22;33708;49.466;11.176;2023-07-31T07:31:28;21.90;1.00
4699;DHT22;33708;49.466;11.176;2023-07-31T07:33:54;22.40;1.00
4699;DHT22;33708;49.466;11.176;2023-07-31T07:36:19;22.50;1.00
4699;DHT22;33708;49.466;11.176;2023-07-31T07:38:45;22.50;1.00
4699;DHT22;33708;49.466;11.176;2023-07-31T07:41:11;22.30;1.00
4699;DHT22;33708;49.466;11.176;2023-07-31T07:43:36;22.30;1.00
4699;DHT22;33708;49.466;11.176;2023-07-31T07:46:02;22.00;1.00
4699;DHT22;33708;49.466;11.176;2023-07-31T07:48:27;21.80;1.00
4699;DHT22;33708;49.466;11.176;2023-07-31T07:50:53;21.80;1.00
4699;DHT22;33708;49.466;11.176;2023-07-31T07:53:18;21.80;1.00
4699;DHT22;33708;49.466;11.176;2023-07-31T07:55:44;21.60;1.00
4699;DHT22;33708;49.466;11.176;2023-07-31T07:58:10;22.00;1.00
4699;DHT22;33708;49.466;11.176;2023-07-31T08:00:35;22.00;1.00
4699;DHT22;33708;49.466;11.176;2023-07-31T08:03:01;22.30;1.00
4699;DHT22;33708;49.466;11.176;2023-07-31T08:05:26;22.40;1.00
4699;DHT22;33708;49.466;11.176;2023-07-31T08:07:52;22.70;1.00
4699;DHT22;33708;49.466;11.176;2023-07-31T08:10:18;23.10;1.00
4699;DHT22;33708;49.466;11.176;2023-07-31T08:12:43;23.90;1.00
4699;DHT22;33708;49.466;11.176;2023-07-31T08:15:09;24.40;1.00
4699;DHT22;33708;49.466;11.176;2023-07-31T08:17:34;24.50;1.00
4699;DHT22;33708;49.466;11.176;2023-07-31T08:20:00;24.30;1.00
4699;DHT22;33708;49.466;11.176;2023-07-31T08:22:26;24.60;1.00
4699;DHT22;33708;49.466;11.176;2023-07-31T08:24:51;26.30;1.00
4699;DHT22;33708;49.466;11.176;2023-07-31T08:27:17;27.40;1.00
4699;DHT22;33708;49.466;11.176;2023-07-31T08:29:42;27.90;1.00
4699;DHT22;33708;49.466;11.176;2023-07-31T08:32:08;27.80;1.00
4699;DHT22;33708;49.466;11.176;2023-07-31T08:34:34;27.70;1.00
4699;DHT22;33708;49.466;11.176;2023-07-31T08:36:59;28.10;1.00
4699;DHT22;33708;49.466;11.176;2023-07-31T08:39:25;29.10;1.00
4699;DHT22;33708;49.466;11.176;2023-07-31T08:41:50;32.10;1.00
4699;DHT22;33708;49.466;11.176;2023-07-31T08:44:17;33.80;99.90
4699;DHT22;33708;49.466;11.176;2023-07-31T08:46:43;32.90;99.90
4699;DHT22;33708;49.466;11.176;2023-07-31T08:49:10;31.30;1.00
4699;DHT22;33708;49.466;11.176;2023-07-31T08:51:36;30.70;1.00
4699;DHT22;33708;49.466;11.176;2023-07-31T08:54:02;29.70;1.00
4699;DHT22;33708;49.466;11.176;2023-07-31T08:56:32;31.70;1.00
4699;DHT22;33708;49.466;11.176;2023-07-31T08:58:59;32.60;1.00
4699;DHT22;33708;49.466;11.176;2023-07-31T09:01:29;32.60;87.40
4699;DHT22;33708;49.466;11.176;2023-07-31T09:03:55;31.30;99.90
4699;DHT22;33708;49.466;11.176;2023-07-31T09:06:22;31.10;1.00
4699;DHT22;33708;49.466;11.176;2023-07-31T09:11:15;33.60;1.00
4699;DHT22;33708;49.466;11.176;2023-07-31T09:13:41;33.80;1.00
4699;DHT22;33708;49.466;11.176;2023-07-31T09:16:08;32.60;1.00
4699;DHT22;33708;49.466;11.176;2023-07-31T09:18:53;31.40;1.00
4699;DHT22;33708;49.466;11.176;2023-07-31T09:21:19;31.00;1.00
4699;DHT22;33708;49.466;11.176;2023-07-31T09:23:46;32.60;1.00
4699;DHT22;33708;49.466;11.176;2023-07-31T09:26:35;34.80;1.00
4699;DHT22;33708;49.466;11.176;2023-07-31T09:31:40;36.50;1.00
4699;DHT22;33708;49.466;11.176;2023-07-31T09:34:06;37.20;1.00
4699;DHT22;33708;49.466;11.176;2023-07-31T09:36:32;34.40;99.90
4699;DHT22;33708;49.466;11.176;2023-07-31T09:39:02;33.10;99.90
4699;DHT22;33708;49.466;11.176;2023-07-31T09:41:28;32.00;38.20
4699;DHT22;33708;49.466;11.176;2023-07-31T09:43:54;31.70;40.50
4699;DHT22;33708;49.466;11.176;2023-07-31T09:46:20;31.90;65.90
4699;DHT22;33708;49.466;11.176;2023-07-31T09:48:46;30.90;1.00
4699;DHT22;33708;49.466;11.176;2023-07-31T09:51:12;30.30;1.00
4699;DHT22;33708;49.466;11.176;2023-07-31T09:53:37;30.20;1.00
4699;DHT22;33708;49.466;11.176;2023-07-31T09:56:03;28.80;1.00
4699;DHT22;33708;49.466;11.176;2023-07-31T09:58:29;28.50;1.00
4699;DHT22;33708;49.466;11.176;2023-07-31T10:00:59;27.80;1.00
4699;DHT22;33708;49.466;11.176;2023-07-31T10:03:25;28.30;1.00
4699;DHT22;33708;49.466;11.176;2023-07-31T10:05:53;28.00;92.80
4699;DHT22;33708;49.466;11.176;2023-07-31T10:08:21;27.90;99.90
4699;DHT22;33708;49.466;11.176;2023-07-31T10:10:49;27.50;99.90
4699;DHT22;33708;49.466;11.176;2023-07-31T10:13:15;27.60;99.90
4699;DHT22;33708;49.466;11.176;2023-07-31T10:15:42;27.90;99.90
4699;DHT22;33708;49.466;11.176;2023-07-31T10:18:09;27.80;99.90
4699;DHT22;33708;49.466;11.176;2023-07-31T10:20:35;27.90;99.90
4699;DHT22;33708;49.466;11.176;2023-07-31T10:23:01;28.70;99.90
4699;DHT22;33708;49.466;11.176;2023-07-31T10:25:27;28.10;99.90
4699;DHT22;33708;49.466;11.176;2023-07-31T10:27:54;27.50;99.90
4699;DHT22;33708;49.466;11.176;2023-07-31T10:30:26;27.70;99.90
4699;DHT22;33708;49.466;11.176;2023-07-31T10:32:53;26.90;99.90
4699;DHT22;33708;49.466;11.176;2023-07-31T10:35:20;27.20;99.90
4699;DHT22;33708;49.466;11.176;2023-07-31T10:37:47;27.60;99.90
4699;DHT22;33708;49.466;11.176;2023-07-31T10:42:50;26.60;1.00
4699;DHT22;33708;49.466;11.176;2023-07-31T10:45:36;26.40;1.00
4699;DHT22;33708;49.466;11.176;2023-07-31T10:48:07;26.70;1.00
4699;DHT22;33708;49.466;11.176;2023-07-31T10:50:40;27.20;1.00
4699;DHT22;33708;49.466;11.176;2023-07-31T10:53:29;27.70;1.00
4699;DHT22;33708;49.466;11.176;2023-07-31T10:55:59;28.10;1.00
4699;DHT22;33708;49.466;11.176;2023-07-31T10:58:24;28.30;1.00
4699;DHT22;33708;49.466;11.176;2023-07-31T11:00:55;27.80;1.00
4699;DHT22;33708;49.466;11.176;2023-07-31T11:03:25;27.10;1.00
4699;DHT22;33708;49.466;11.176;2023-07-31T11:08:29;27.70;1.00
4699;DHT22;33708;49.466;11.176;2023-07-31T11:13:30;28.20;1.00
4699;DHT22;33708;49.466;11.176;2023-07-31T11:15:56;28.60;1.00
4699;DHT22;33708;49.466;11.176;2023-07-31T11:18:22;28.10;1.00
4699;DHT22;33708;49.466;11.176;2023-07-31T11:20:48;27.90;1.00
4699;DHT22;33708;49.466;11.176;2023-07-31T11:23:17;27.30;1.00
4699;DHT22;33708;49.466;11.176;2023-07-31T11:25:43;26.60;1.00
4699;DHT22;33708;49.466;11.176;2023-07-31T11:28:16;26.30;1.00
4699;DHT22;33708;49.466;11.176;2023-07-31T11:30:43;26.20;1.00
4699;DHT22;33708;49.466;11.176;2023-07-31T11:33:10;25.80;1.00
4699;DHT22;33708;49.466;11.176;2023-07-31T11:35:44;25.90;1.00
4699;DHT22;33708;49.466;11.176;2023-07-31T11:38:12;26.20;1.00
4699;DHT22;33708;49.466;11.176;2023-07-31T11:40:44;26.10;1.00
4699;DHT22;33708;49.466;11.176;2023-07-31T11:43:10;25.40;1.00
4699;DHT22;33708;49.466;11.176;2023-07-31T11:45:41;25.70;1.00
4699;DHT22;33708;49.466;11.176;2023-07-31T11:48:07;25.80;1.00
4699;DHT22;33708;49.466;11.176;2023-07-31T11:50:33;25.60;1.00
4699;DHT22;33708;49.466;11.176;2023-07-31T11:53:04;25.20;1.00
4699;DHT22;33708;49.466;11.176;2023-07-31T11:55:33;25.00;1.00
4699;DHT22;33708;49.466;11.176;2023-07-31T11:57:59;24.90;1.00
4699;DHT22;33708;49.466;11.176;2023-07-31T12:00:26;24.80;1.00
4699;DHT22;33708;49.466;11.176;2023-07-31T12:02:52;24.90;1.00
4699;DHT22;33708;49.466;11.176;2023-07-31T12:05:18;25.30;1.00
4699;DHT22;33708;49.466;11.176;2023-07-31T12:07:48;25.70;1.00
4699;DHT22;33708;49.466;11.176;2023-07-31T12:10:31;24.90;1.00
4699;DHT22;33708;49.466;11.176;2023-07-31T12:12:58;25.10;1.00
4699;DHT22;33708;49.466;11.176;2023-07-31T12:18:07;25.70;1.00
4699;DHT22;33708;49.466;11.176;2023-07-31T12:20:34;25.70;1.00
4699;DHT22;33708;49.466;11.176;2023-07-31T12:22:59;25.50;1.00
4699;DHT22;33708;49.466;11.176;2023-07-31T12:25:29;25.30;1.00
4699;DHT22;33708;49.466;11.176;2023-07-31T12:27:55;24.90;1.00
4699;DHT22;33708;49.466;11.176;2023-07-31T12:30:47;25.10;1.00
4699;DHT22;33708;49.466;11.176;2023-07-31T12:33:14;25.70;1.00
4699;DHT22;33708;49.466;11.176;2023-07-31T12:35:47;25.70;1.00
4699;DHT22;33708;49.466;11.176;2023-07-31T12:38:13;26.30;1.00
4699;DHT22;33708;49.466;11.176;2023-07-31T12:40:40;26.70;1.00
4699;DHT22;33708;49.466;11.176;2023-07-31T12:43:07;27.10;1.00
4699;DHT22;33708;49.466;11.176;2023-07-31T12:45:33;27.50;1.00
4699;DHT22;33708;49.466;11.176;2023-07-31T12:48:00;27.00;1.00
4699;DHT22;33708;49.466;11.176;2023-07-31T12:50:26;27.10;1.00
4699;DHT22;33708;49.466;11.176;2023-07-31T12:52:53;27.00;1.00
4699;DHT22;33708;49.466;11.176;2023-07-31T12:55:20;27.20;1.00
4699;DHT22;33708;49.466;11.176;2023-07-31T12:57:46;27.20;1.00
4699;DHT22;33708;49.466;11.176;2023-07-31T13:00:12;27.00;1.00
4699;DHT22;33708;49.466;11.176;2023-07-31T13:02:38;27.20;1.00
4699;DHT22;33708;49.466;11.176;2023-07-31T13:05:04;27.20;1.00
4699;DHT22;33708;49.466;11.176;2023-07-31T13:07:30;27.50;1.00
4699;DHT22;33708;49.466;11.176;2023-07-31T13:09:55;27.70;1.00
4699;DHT22;33708;49.466;11.176;2023-07-31T13:12:21;27.50;1.00
4699;DHT22;33708;49.466;11.176;2023-07-31T13:14:46;27.80;1.00
4699;DHT22;33708;49.466;11.176;2023-07-31T13:17:12;27.50;1.00
4699;DHT22;33708;49.466;11.176;2023-07-31T13:19:37;27.60;1.00
4699;DHT22;33708;49.466;11.176;2023-07-31T13:22:03;27.50;1.00
4699;DHT22;33708;49.466;11.176;2023-07-31T13:24:29;27.80;1.00
4699;DHT22;33708;49.466;11.176;2023-07-31T13:26:57;27.40;1.00
4699;DHT22;33708;49.466;11.176;2023-07-31T13:29:23;27.70;1.00
4699;DHT22;33708;49.466;11.176;2023-07-31T13:31:49;27.40;1.00
4699;DHT22;33708;49.466;11.176;2023-07-31T13:34:15;26.70;1.00
4699;DHT22;33708;49.466;11.176;2023-07-31T13:36:40;27.30;1.00
4699;DHT22;33708;49.466;11.176;2023-07-31T13:39:07;27.70;1.00
4699;DHT22;33708;49.466;11.176;2023-07-31T13:41:33;27.40;1.00
4699;DHT22;33708;49.466;11.176;2023-07-31T13:43:58;27.20;1.00
4699;DHT22;33708;49.466;11.176;2023-07-31T13:46:24;27.10;1.00
4699;DHT22;33708;49.466;11.176;2023-07-31T13:48:51;27.00;1.00
4699;DHT22;33708;49.466;11.176;2023-07-31T13:51:16;27.30;1.00
4699;DHT22;33708;49.466;11.176;2023-07-31T13:53:42;27.30;1.00
4699;DHT22;33708;49.466;11.176;2023-07-31T13:56:07;27.20;1.00
4699;DHT22;33708;49.466;11.176;2023-07-31T13:58:33;27.30;1.00
4699;DHT22;33708;49.466;11.176;2023-07-31T14:00:59;28.10;1.00
4699;DHT22;33708;49.466;11.176;2023-07-31T14:03:24;28.20;1.00
4699;DHT22;33708;49.466;11.176;2023-07-31T14:05:51;27.80;1.00
4699;DHT22;33708;49.466;11.176;2023-07-31T14:08:16;27.90;1.00
4699;DHT22;33708;49.466;11.176;2023-07-31T14:10:42;27.60;1.00
4699;DHT22;33708;49.466;11.176;2023-07-31T14:13:08;27.50;1.00
4699;DHT22;33708;49.466;11.176;2023-07-31T14:15:33;27.70;1.00
4699;DHT22;33708;49.466;11.176;2023-07-31T14:18:01;27.60;1.00
4699;DHT22;33708;49.466;11.176;2023-07-31T14:20:27;27.60;1.00
4699;DHT22;33708;49.466;11.176;2023-07-31T14:22:53;27.80;1.00
4699;DHT22;33708;49.466;11.176;2023-07-31T14:25:18;27.50;1.00
4699;DHT22;33708;49.466;11.176;2023-07-31T14:27:44;27.30;1.00
4699;DHT22;33708;49.466;11.176;2023-07-31T14:30:09;27.00;1.00
4699;DHT22;33708;49.466;11.176;2023-07-31T14:32:35;26.60;1.00
4699;DHT22;33708;49.466;11.176;2023-07-31T14:35:02;26.70;1.00
4699;DHT22;33708;49.466;11.176;2023-07-31T14:37:37;26.60;1.00
4699;DHT22;33708;49.466;11.176;2023-07-31T14:40:03;26.20;1.00
4699;DHT22;33708;49.466;11.176;2023-07-31T14:42:28;26.40;1.00
4699;DHT22;33708;49.466;11.176;2023-07-31T14:44:54;26.40;1.00
4699;DHT22;33708;49.466;11.176;2023-07-31T14:47:19;26.10;1.00
4699;DHT22;33708;49.466;11.176;2023-07-31T14:49:45;26.20;1.00
4699;DHT22;33708;49.466;11.176;2023-07-31T14:52:11;26.30;1.00
4699;DHT22;33708;49.466;11.176;2023-07-31T14:54:36;26.30;1.00
4699;DHT22;33708;49.466;11.176;2023-07-31T14:57:02;26.10;1.00
4699;DHT22;33708;49.466;11.176;2023-07-31T14:59:28;25.70;1.00
4699;DHT22;33708;49.466;11.176;2023-07-31T15:01:54;25.70;1.00
4699;DHT22;33708;49.466;11.176;2023-07-31T15:04:20;25.50;1.00
4699;DHT22;33708;49.466;11.176;2023-07-31T15:06:46;25.60;1.00
4699;DHT22;33708;49.466;11.176;2023-07-31T15:09:12;25.30;1.00
4699;DHT22;33708;49.466;11.176;2023-07-31T15:11:39;25.00;1.00
4699;DHT22;33708;49.466;11.176;2023-07-31T15:14:04;24.90;1.00
4699;DHT22;33708;49.466;11.176;2023-07-31T15:16:30;24.60;1.00
4699;DHT22;33708;49.466;11.176;2023-07-31T15:18:57;24.70;1.00
4699;DHT22;33708;49.466;11.176;2023-07-31T15:21:22;24.50;1.00
4699;DHT22;33708;49.466;11.176;2023-07-31T15:23:48;24.40;1.00
4699;DHT22;33708;49.466;11.176;2023-07-31T15:26:13;24.20;1.00
4699;DHT22;33708;49.466;11.176;2023-07-31T15:28:39;24.10;1.00
4699;DHT22;33708;49.466;11.176;2023-07-31T15:31:05;23.90;1.00
4699;DHT22;33708;49.466;11.176;2023-07-31T15:33:30;23.90;1.00
4699;DHT22;33708;49.466;11.176;2023-07-31T15:35:56;23.90;1.00
4699;DHT22;33708;49.466;11.176;2023-07-31T15:38:23;24.00;1.00
4699;DHT22;33708;49.466;11.176;2023-07-31T15:40:49;24.10;1.00
4699;DHT22;33708;49.466;11.176;2023-07-31T15:43:16;24.10;1.00
4699;DHT22;33708;49.466;11.176;2023-07-31T15:45:42;24.00;1.00
4699;DHT22;33708;49.466;11.176;2023-07-31T15:48:07;23.90;1.00
4699;DHT22;33708;49.466;11.176;2023-07-31T15:50:33;23.80;1.00
4699;DHT22;33708;49.466;11.176;2023-07-31T15:52:58;23.70;1.00
4699;DHT22;33708;49.466;11.176;2023-07-31T15:55:24;23.80;1.00
4699;DHT22;33708;49.466;11.176;2023-07-31T15:57:50;23.70;1.00
4699;DHT22;33708;49.466;11.176;2023-07-31T16:00:16;23.60;1.00
4699;DHT22;33708;49.466;11.176;2023-07-31T16:02:42;23.70;1.00
4699;DHT22;33708;49.466;11.176;2023-07-31T16:05:08;24.10;1.00